createdAt,value
2019-02-23T00:00:37.464Z,6.17
2019-02-23T00:03:06.269Z,7.15
2019-02-23T00:05:35.130Z,8.95
2019-02-23T00:08:04.019Z,7.47
2019-02-23T00:10:32.873Z,5.75
2019-02-23T00:13:01.731Z,8.33
2019-02-23T00:15:30.637Z,7.47
2019-02-23T00:17:59.525Z,8.40
2019-02-23T00:20:28.377Z,7.87
2019-02-23T00:22:57.259Z,8.30
2019-02-23T00:25:36.783Z,8.60
2019-02-23T00:28:05.759Z,7.35
2019-02-23T00:30:34.565Z,8.68
2019-02-23T00:33:03.381Z,6.33
2019-02-23T00:35:32.225Z,8.00
2019-02-23T00:38:01.091Z,6.12
2019-02-23T00:40:29.890Z,7.65
2019-02-23T00:42:58.758Z,6.97
2019-02-23T00:45:27.578Z,7.17
2019-02-23T00:47:56.366Z,5.00
2019-02-23T00:50:25.237Z,6.95
2019-02-23T00:52:54.045Z,8.48
2019-02-23T00:55:23.041Z,5.30
2019-02-23T00:57:51.847Z,9.10
2019-02-23T01:00:20.877Z,6.78
2019-02-23T01:02:49.801Z,7.03
2019-02-23T01:05:18.603Z,9.85
2019-02-23T01:07:47.409Z,5.45
2019-02-23T01:10:16.231Z,6.45
2019-02-23T01:12:45.141Z,6.45
2019-02-23T01:15:14.201Z,7.80
2019-02-23T01:17:43.132Z,4.80
2019-02-23T01:20:12.226Z,8.78
2019-02-23T01:22:41.179Z,4.45
2019-02-23T01:25:10.195Z,8.58
2019-02-23T01:27:39.102Z,6.17
2019-02-23T01:30:10.614Z,9.95
2019-02-23T01:32:39.434Z,8.40
2019-02-23T01:35:08.305Z,6.35
2019-02-23T01:37:37.141Z,8.80
2019-02-23T01:40:08.137Z,8.55
2019-02-23T01:42:36.979Z,7.50
2019-02-23T01:45:06.277Z,8.23
2019-02-23T01:47:35.213Z,10.82
2019-02-23T01:50:04.243Z,10.98
2019-02-23T01:52:33.017Z,9.18
2019-02-23T01:55:01.894Z,6.20
2019-02-23T01:57:30.667Z,7.83
2019-02-23T01:59:59.548Z,7.00
2019-02-23T02:02:28.343Z,6.10
2019-02-23T02:04:57.265Z,8.90
2019-02-23T02:07:26.273Z,11.28
2019-02-23T02:09:55.213Z,8.38
2019-02-23T02:12:24.418Z,9.38
2019-02-23T02:14:53.368Z,11.40
2019-02-23T02:17:22.334Z,6.80
2019-02-23T02:19:51.254Z,9.98
2019-02-23T02:22:20.082Z,7.20
2019-02-23T02:24:48.870Z,9.38
2019-02-23T02:27:17.863Z,8.40
2019-02-23T02:29:46.821Z,6.75
2019-02-23T02:32:15.722Z,5.25
2019-02-23T02:34:44.577Z,8.73
2019-02-23T02:37:13.349Z,15.50
2019-02-23T02:39:42.091Z,6.00
2019-02-23T02:42:10.961Z,4.80
2019-02-23T02:44:39.750Z,7.08
2019-02-23T02:47:08.600Z,6.97
2019-02-23T02:49:37.556Z,7.75
2019-02-23T02:52:06.462Z,7.33
2019-02-23T02:54:35.316Z,8.00
2019-02-23T02:57:04.290Z,11.05
2019-02-23T02:59:33.289Z,11.12
2019-02-23T03:02:02.158Z,11.55
2019-02-23T03:04:31.192Z,10.28
2019-02-23T03:07:00.039Z,14.00
2019-02-23T03:09:28.953Z,9.10
2019-02-23T03:11:57.812Z,10.65
2019-02-23T03:14:26.637Z,8.43
2019-02-23T03:16:55.520Z,15.98
2019-02-23T03:19:24.547Z,12.75
2019-02-23T03:21:53.414Z,7.75
2019-02-23T03:24:22.287Z,8.03
2019-02-23T03:26:51.210Z,11.68
2019-02-23T03:29:20.081Z,9.40
2019-02-23T03:31:51.030Z,9.88
2019-02-23T03:34:19.960Z,15.88
2019-02-23T03:36:48.882Z,13.32
2019-02-23T03:39:17.731Z,10.08
2019-02-23T03:41:46.863Z,16.48
2019-02-23T03:44:15.716Z,8.63
2019-02-23T03:46:44.784Z,9.43
2019-02-23T03:49:13.730Z,9.10
2019-02-23T03:51:42.962Z,14.78
2019-02-23T03:54:12.044Z,10.23
2019-02-23T03:56:41.002Z,8.98
2019-02-23T03:59:09.884Z,10.20
2019-02-23T04:01:38.808Z,9.53
2019-02-23T04:04:07.751Z,8.98
2019-02-23T04:06:36.607Z,17.55
2019-02-23T04:09:06.214Z,16.15
2019-02-23T04:11:35.174Z,10.63
2019-02-23T04:14:03.972Z,12.25
2019-02-23T04:16:32.940Z,16.32
2019-02-23T04:19:01.956Z,12.10
2019-02-23T04:21:30.742Z,12.63
2019-02-23T04:23:59.610Z,11.78
2019-02-23T04:26:28.538Z,9.10
2019-02-23T04:28:57.323Z,11.30
2019-02-23T04:31:26.186Z,12.50
2019-02-23T04:33:55.174Z,12.60
2019-02-23T04:36:23.992Z,18.07
2019-02-23T04:38:52.800Z,9.65
2019-02-23T04:41:21.641Z,12.45
2019-02-23T04:43:50.836Z,10.43
2019-02-23T04:46:19.936Z,16.50
2019-02-23T04:48:48.810Z,10.28
2019-02-23T04:51:17.706Z,11.63
2019-02-23T04:53:46.567Z,17.37
2019-02-23T04:56:16.906Z,16.57
2019-02-23T04:58:45.783Z,15.68
2019-02-23T05:01:14.675Z,12.03
2019-02-23T05:03:43.806Z,12.78
2019-02-23T05:06:12.977Z,17.82
2019-02-23T05:08:41.879Z,12.15
2019-02-23T05:11:10.772Z,13.30
2019-02-23T05:13:39.742Z,14.30
2019-02-23T05:16:08.710Z,8.43
2019-02-23T05:18:37.580Z,10.78
2019-02-23T05:21:06.439Z,14.23
2019-02-23T05:23:35.236Z,14.65
2019-02-23T05:26:04.073Z,9.80
2019-02-23T05:28:32.867Z,12.63
2019-02-23T05:31:01.725Z,13.95
2019-02-23T05:33:30.512Z,13.65
2019-02-23T05:35:59.410Z,18.32
2019-02-23T05:38:28.222Z,11.12
2019-02-23T05:40:56.980Z,13.28
2019-02-23T05:43:25.942Z,11.43
2019-02-23T05:45:54.898Z,19.32
2019-02-23T05:48:23.757Z,11.95
2019-02-23T05:50:52.611Z,11.08
2019-02-23T05:53:21.544Z,11.83
2019-02-23T05:55:50.400Z,13.95
2019-02-23T05:58:20.916Z,15.88
2019-02-23T06:00:49.825Z,15.45
2019-02-23T06:03:18.916Z,12.90
2019-02-23T06:05:47.803Z,17.50
2019-02-23T06:08:16.737Z,13.05
2019-02-23T06:10:45.716Z,15.32
2019-02-23T06:13:14.671Z,16.00
2019-02-23T06:15:43.523Z,15.00
2019-02-23T06:18:12.531Z,13.45
2019-02-23T06:20:41.519Z,15.30
2019-02-23T06:23:10.557Z,14.15
2019-02-23T06:25:39.473Z,18.48
2019-02-23T06:28:08.487Z,15.72
2019-02-23T06:30:37.483Z,11.88
2019-02-23T06:33:06.262Z,16.57
2019-02-23T06:35:35.136Z,11.50
2019-02-23T06:38:04.135Z,14.83
2019-02-23T06:40:32.950Z,14.10
2019-02-23T06:43:01.918Z,12.03
2019-02-23T06:45:30.806Z,14.40
2019-02-23T06:47:59.775Z,17.90
2019-02-23T06:50:28.846Z,17.55
2019-02-23T06:52:57.778Z,23.50
2019-02-23T06:55:26.769Z,21.93
2019-02-23T06:57:55.722Z,16.15
2019-02-23T07:00:24.539Z,11.20
2019-02-23T07:02:53.322Z,23.35
2019-02-23T07:05:22.290Z,11.57
2019-02-23T07:07:51.286Z,12.55
2019-02-23T07:10:20.202Z,15.63
2019-02-23T07:12:49.036Z,19.90
2019-02-23T07:15:19.726Z,11.05
2019-02-23T07:17:48.766Z,16.57
2019-02-23T07:20:17.608Z,15.10
2019-02-23T07:22:46.518Z,17.15
2019-02-23T07:25:15.540Z,20.08
2019-02-23T07:27:44.357Z,23.57
2019-02-23T07:30:13.219Z,19.62
2019-02-23T07:32:42.214Z,18.32
2019-02-23T07:35:11.393Z,14.90
2019-02-23T07:37:40.598Z,17.30
2019-02-23T07:40:09.809Z,18.50
2019-02-23T07:42:38.787Z,11.33
2019-02-23T07:45:08.091Z,17.07
2019-02-23T07:47:36.929Z,21.42
2019-02-23T07:50:07.572Z,18.15
2019-02-23T07:52:36.910Z,10.65
2019-02-23T07:55:06.110Z,12.03
2019-02-23T07:57:35.078Z,16.50
2019-02-23T08:00:04.117Z,18.60
2019-02-23T08:02:33.034Z,18.25
2019-02-23T08:05:01.875Z,23.10
2019-02-23T08:07:30.858Z,25.23
2019-02-23T08:09:59.730Z,14.35
2019-02-23T08:12:28.598Z,16.55
2019-02-23T08:14:57.843Z,17.00
2019-02-23T08:17:26.886Z,16.60
2019-02-23T08:19:56.343Z,12.82
2019-02-23T08:22:25.347Z,14.53
2019-02-23T08:24:54.366Z,21.30
2019-02-23T08:27:23.466Z,14.55
2019-02-23T08:29:52.460Z,18.67
2019-02-23T08:32:23.442Z,14.20
2019-02-23T08:34:52.397Z,15.43
2019-02-23T08:37:21.215Z,16.30
2019-02-23T08:39:50.055Z,14.40
2019-02-23T08:42:18.916Z,20.35
2019-02-23T08:44:47.771Z,21.70
2019-02-23T08:47:16.631Z,17.05
2019-02-23T08:49:45.651Z,16.82
2019-02-23T08:52:15.822Z,15.78
2019-02-23T08:54:44.593Z,11.95
2019-02-23T08:57:13.471Z,14.00
2019-02-23T08:59:42.513Z,14.23
2019-02-23T09:02:11.644Z,16.45
2019-02-23T09:04:40.576Z,19.23
2019-02-23T09:07:09.544Z,11.03
2019-02-23T09:09:38.494Z,13.28
2019-02-23T09:12:07.440Z,11.85
2019-02-23T09:14:36.391Z,17.48
2019-02-23T09:17:05.400Z,11.55
2019-02-23T09:19:34.299Z,18.77
2019-02-23T09:22:03.142Z,18.00
2019-02-23T09:24:32.078Z,17.45
2019-02-23T09:27:00.935Z,14.87
2019-02-23T09:29:29.900Z,18.62
2019-02-23T09:31:58.821Z,14.80
2019-02-23T09:34:27.726Z,19.77
2019-02-23T09:36:56.618Z,11.68
2019-02-23T09:39:25.411Z,10.18
2019-02-23T09:41:54.173Z,20.92
2019-02-23T09:44:23.070Z,21.42
2019-02-23T09:46:52.139Z,21.02
2019-02-23T09:49:21.035Z,13.40
2019-02-23T09:51:50.095Z,16.17
2019-02-23T09:54:18.931Z,16.73
2019-02-23T09:56:47.711Z,15.78
2019-02-23T09:59:16.495Z,13.13
2019-02-23T10:01:45.277Z,16.12
2019-02-23T10:04:14.129Z,15.23
2019-02-23T10:06:43.097Z,12.98
2019-02-23T10:09:12.079Z,10.95
2019-02-23T10:11:40.971Z,9.65
2019-02-23T10:14:10.084Z,12.82
2019-02-23T10:16:39.329Z,10.35
2019-02-23T10:19:08.379Z,35.78
2019-02-23T10:21:37.256Z,24.75
2019-02-23T10:24:06.443Z,13.60
2019-02-23T10:26:35.389Z,10.82
2019-02-23T10:29:04.291Z,8.98
2019-02-23T10:31:33.188Z,11.33
2019-02-23T10:34:02.025Z,13.68
2019-02-23T10:36:30.943Z,11.33
2019-02-23T10:38:59.873Z,10.90
2019-02-23T10:41:28.957Z,8.93
2019-02-23T10:43:57.963Z,14.75
2019-02-23T10:46:26.929Z,10.43
2019-02-23T10:48:55.901Z,7.70
2019-02-23T10:51:24.739Z,11.30
2019-02-23T10:53:53.806Z,11.43
2019-02-23T10:56:22.605Z,9.28
2019-02-23T10:58:51.538Z,11.38
2019-02-23T11:01:20.553Z,9.65
2019-02-23T11:03:49.403Z,8.28
2019-02-23T11:06:18.287Z,9.00
2019-02-23T11:08:47.280Z,5.05
2019-02-23T11:11:16.240Z,11.12
2019-02-23T11:13:45.145Z,3.72
2019-02-23T11:16:14.268Z,8.60
2019-02-23T11:18:43.071Z,7.50
2019-02-23T11:21:11.999Z,6.05
2019-02-23T11:23:44.159Z,9.08
2019-02-23T11:26:11.627Z,7.10
2019-02-23T11:28:40.688Z,10.78
2019-02-23T11:31:09.852Z,9.38
2019-02-23T11:33:38.681Z,9.00
2019-02-23T11:36:07.691Z,8.83
2019-02-23T11:38:36.702Z,16.23
2019-02-23T11:41:05.755Z,7.70
2019-02-23T11:43:34.573Z,8.63
2019-02-23T11:46:03.469Z,6.33
2019-02-23T11:48:34.851Z,8.75
2019-02-23T11:51:04.267Z,9.45
2019-02-23T11:53:33.075Z,7.10
2019-02-23T11:56:01.865Z,7.30
2019-02-23T11:58:30.629Z,5.73
2019-02-23T12:00:59.575Z,8.73
2019-02-23T12:06:32.187Z,9.10
2019-02-23T12:09:01.955Z,10.40
2019-02-23T12:11:30.881Z,13.10
2019-02-23T12:13:59.709Z,11.23
2019-02-23T12:16:29.281Z,12.50
2019-02-23T12:18:58.109Z,12.33
2019-02-23T12:21:26.894Z,12.60
2019-02-23T12:24:05.483Z,9.67
2019-02-23T12:26:26.163Z,10.47
2019-02-23T12:28:54.967Z,13.70
2019-02-23T12:31:23.901Z,7.57
2019-02-23T12:33:52.729Z,13.73
2019-02-23T12:36:21.617Z,12.67
2019-02-23T12:38:50.611Z,7.23
2019-02-23T12:41:19.437Z,9.80
2019-02-23T12:43:48.462Z,11.77
2019-02-23T12:46:17.399Z,9.73
2019-02-23T12:48:46.313Z,9.73
2019-02-23T12:51:15.313Z,11.20
2019-02-23T12:53:44.336Z,18.23
2019-02-23T12:56:13.197Z,10.53
2019-02-23T12:58:42.055Z,11.77
2019-02-23T13:01:10.872Z,11.13
2019-02-23T13:03:39.673Z,12.40
2019-02-23T13:06:08.514Z,29.23
2019-02-23T13:09:24.808Z,7.33
2019-02-23T13:12:06.909Z,9.00
2019-02-23T13:15:09.031Z,20.80
2019-02-23T13:18:01.242Z,14.77
2019-02-23T13:21:17.300Z,10.83
2019-02-23T13:24:44.567Z,12.00
2019-02-23T13:27:23.521Z,12.83
2019-02-23T13:30:39.368Z,10.30
2019-02-23T13:33:47.068Z,10.17
2019-02-23T13:36:49.416Z,13.30
2019-02-23T13:39:42.165Z,15.77
2019-02-23T13:42:50.378Z,17.90
2019-02-23T13:46:05.607Z,8.63
2019-02-23T13:49:31.587Z,12.00
2019-02-23T13:52:24.773Z,11.43
2019-02-23T13:55:39.886Z,29.80
2019-02-23T13:58:54.221Z,21.27
2019-02-23T14:01:50.495Z,19.47
2019-02-23T14:05:12.503Z,11.03
2019-02-23T14:08:12.155Z,10.63
2019-02-23T14:11:11.407Z,12.43
2019-02-23T14:14:17.182Z,9.27
2019-02-23T14:17:03.747Z,7.70
2019-02-23T14:19:49.260Z,9.37
2019-02-23T14:22:59.973Z,16.17
2019-02-23T14:26:13.427Z,6.93
2019-02-23T14:28:53.144Z,11.27
2019-02-23T14:31:31.954Z,8.73
2019-02-23T14:34:17.772Z,13.97
2019-02-23T14:37:11.849Z,11.17
2019-02-23T14:40:01.957Z,9.63
2019-02-23T14:43:00.621Z,9.30
2019-02-23T14:45:49.433Z,5.83
2019-02-23T14:48:53.986Z,10.10
2019-02-23T14:51:46.426Z,8.97
2019-02-23T14:54:23.522Z,11.40
2019-02-23T14:57:27.277Z,9.20
2019-02-23T15:00:31.006Z,9.20
2019-02-23T15:03:41.271Z,12.63
2019-02-23T15:06:54.563Z,7.20
2019-02-23T15:09:37.010Z,9.17
2019-02-23T15:12:29.545Z,10.87
2019-02-23T15:15:22.946Z,6.37
2019-02-23T15:18:25.239Z,8.30
2019-02-23T15:21:04.850Z,7.60
2019-02-23T15:23:54.329Z,10.10
2019-02-23T15:27:00.774Z,14.70
2019-02-23T15:30:08.102Z,11.70
2019-02-23T15:33:11.032Z,13.80
2019-02-23T15:36:00.342Z,6.87
2019-02-23T15:39:34.546Z,11.10
2019-02-23T15:43:00.080Z,15.27
2019-02-23T15:46:13.203Z,11.40
2019-02-23T15:49:06.425Z,11.50
2019-02-23T15:51:35.294Z,9.43
2019-02-23T15:54:04.510Z,10.80
2019-02-23T15:56:33.410Z,8.60
2019-02-23T15:59:02.304Z,11.48
2019-02-23T16:01:31.313Z,13.33
2019-02-23T16:04:00.136Z,11.40
2019-02-23T16:06:31.542Z,9.73
2019-02-23T16:08:59.547Z,11.57
2019-02-23T16:11:28.431Z,10.75
2019-02-23T16:13:57.426Z,5.70
2019-02-23T16:16:26.340Z,9.67
2019-02-23T16:18:55.215Z,9.63
2019-02-23T16:21:24.036Z,11.43
2019-02-23T16:23:52.889Z,10.45
2019-02-23T16:26:21.750Z,12.07
2019-02-23T16:28:50.576Z,13.25
2019-02-23T16:31:19.387Z,14.83
2019-02-23T16:33:48.342Z,16.00
2019-02-23T16:36:17.240Z,19.12
2019-02-23T16:38:46.026Z,9.83
2019-02-23T16:41:14.830Z,10.90
2019-02-23T16:43:43.636Z,18.30
2019-02-23T16:46:12.518Z,14.55
2019-02-23T16:48:41.340Z,15.65
2019-02-23T16:51:10.310Z,20.05
2019-02-23T16:53:39.086Z,13.03
2019-02-23T16:56:07.980Z,16.55
2019-02-23T16:58:36.876Z,15.90
2019-02-23T17:01:05.690Z,8.13
2019-02-23T17:03:34.586Z,13.90
2019-02-23T17:06:03.446Z,13.32
2019-02-23T17:08:32.279Z,12.95
2019-02-23T17:11:01.168Z,16.32
2019-02-23T17:13:29.990Z,18.27
2019-02-23T17:15:58.837Z,14.33
2019-02-23T17:18:27.620Z,15.38
2019-02-23T17:20:56.476Z,14.47
2019-02-23T17:23:25.253Z,22.42
2019-02-23T17:26:03.742Z,15.55
2019-02-23T17:28:24.716Z,15.95
2019-02-23T17:30:53.610Z,15.75
2019-02-23T17:33:22.502Z,9.80
2019-02-23T17:35:51.336Z,16.27
2019-02-23T17:38:20.215Z,22.40
2019-02-23T17:40:49.079Z,18.20
2019-02-23T17:43:17.962Z,19.32
2019-02-23T17:45:46.789Z,29.20
2019-02-23T17:48:15.640Z,14.90
2019-02-23T17:50:44.530Z,12.50
2019-02-23T17:53:13.418Z,16.77
2019-02-23T17:55:42.278Z,20.25
2019-02-23T17:58:11.078Z,31.80
2019-02-23T18:00:39.910Z,23.70
2019-02-23T18:03:08.728Z,19.45
2019-02-23T18:05:37.619Z,15.90
2019-02-23T18:08:06.467Z,23.65
2019-02-23T18:10:35.407Z,18.95
2019-02-23T18:13:04.219Z,15.70
2019-02-23T18:15:33.023Z,18.37
2019-02-23T18:18:01.832Z,17.87
2019-02-23T18:20:30.904Z,38.15
2019-02-23T18:22:59.764Z,22.45
2019-02-23T18:25:28.635Z,19.15
2019-02-23T18:27:57.439Z,18.95
2019-02-23T18:30:26.280Z,15.83
2019-02-23T18:32:55.085Z,17.15
2019-02-23T18:35:23.889Z,13.32
2019-02-23T18:37:52.679Z,19.23
2019-02-23T18:40:21.467Z,12.70
2019-02-23T18:42:50.266Z,20.37
2019-02-23T18:45:19.209Z,20.90
2019-02-23T18:47:48.137Z,16.23
2019-02-23T18:50:17.054Z,12.85
2019-02-23T18:52:45.868Z,18.57
2019-02-23T18:55:14.891Z,15.40
2019-02-23T18:57:43.692Z,18.37
2019-02-23T19:00:12.969Z,21.42
2019-02-23T19:02:41.907Z,28.87
2019-02-23T19:05:11.759Z,16.73
2019-02-23T19:07:40.689Z,20.72
2019-02-23T19:10:10.933Z,17.42
2019-02-23T19:12:42.839Z,22.50
2019-02-23T19:15:12.048Z,14.35
2019-02-23T19:17:42.345Z,20.95
2019-02-23T19:20:12.111Z,24.27
2019-02-23T19:22:41.034Z,19.42
2019-02-23T19:25:14.874Z,20.68
2019-02-23T19:27:44.001Z,22.22
2019-02-23T19:30:12.957Z,23.07
2019-02-23T19:32:46.917Z,28.75
2019-02-23T19:35:15.793Z,13.45
2019-02-23T19:37:44.965Z,17.42
2019-02-23T19:40:17.315Z,27.70
2019-02-23T19:42:46.894Z,23.27
2019-02-23T19:45:16.215Z,18.07
2019-02-23T19:47:49.919Z,27.82
2019-02-23T19:50:25.037Z,25.95
2019-02-23T19:52:54.319Z,23.35
2019-02-23T19:55:23.703Z,19.92
2019-02-23T19:57:52.791Z,19.23
2019-02-23T20:00:21.734Z,26.48
2019-02-23T20:02:50.655Z,22.73
2019-02-23T20:05:19.895Z,36.35
2019-02-23T20:07:52.654Z,33.45
2019-02-23T20:10:25.951Z,28.85
2019-02-23T20:12:55.885Z,27.15
2019-02-23T20:15:24.818Z,24.52
2019-02-23T20:17:53.706Z,18.85
2019-02-23T20:20:22.571Z,19.12
2019-02-23T20:22:51.783Z,25.65
2019-02-23T20:25:20.723Z,23.55
2019-02-23T20:27:49.651Z,26.42
2019-02-23T20:30:18.943Z,29.65
2019-02-23T20:32:49.290Z,21.75
2019-02-23T20:35:18.260Z,21.07
2019-02-23T20:37:47.179Z,23.87
2019-02-23T20:40:16.119Z,27.60
2019-02-23T20:42:44.969Z,38.25
2019-02-23T20:45:14.517Z,62.08
2019-02-23T20:47:43.454Z,33.20
2019-02-23T20:50:12.308Z,23.90
2019-02-23T20:52:41.134Z,21.82
2019-02-23T20:55:10.965Z,20.12
2019-02-23T20:57:39.790Z,20.68
2019-02-23T21:00:13.934Z,18.57
2019-02-23T21:02:40.047Z,18.52
2019-02-23T21:05:09.425Z,27.22
2019-02-23T21:07:38.378Z,18.57
2019-02-23T21:10:07.560Z,19.23
2019-02-23T21:12:36.707Z,18.15
2019-02-23T21:15:07.963Z,24.30
2019-02-23T21:17:45.205Z,17.90
2019-02-23T21:20:14.214Z,26.33
2019-02-23T21:22:46.998Z,21.95
2019-02-23T21:25:16.583Z,17.05
2019-02-23T21:27:45.769Z,18.87
2019-02-23T21:30:14.594Z,21.60
2019-02-23T21:32:43.665Z,17.40
2019-02-23T21:35:12.459Z,22.58
2019-02-23T21:37:41.576Z,20.77
2019-02-23T21:40:12.090Z,20.35
2019-02-23T21:42:41.912Z,17.98
2019-02-23T21:45:10.849Z,19.67
2019-02-23T21:47:39.750Z,16.15
2019-02-23T21:50:09.424Z,16.37
2019-02-23T21:52:38.274Z,18.45
2019-02-23T21:55:07.552Z,25.43
2019-02-23T21:57:36.614Z,18.65
2019-02-23T22:00:05.751Z,26.70
2019-02-23T22:02:34.545Z,28.20
2019-02-23T22:05:11.651Z,25.48
2019-02-23T22:07:33.985Z,25.27
2019-02-23T22:10:02.978Z,23.55
2019-02-23T22:12:31.802Z,18.80
2019-02-23T22:15:00.761Z,24.52
2019-02-23T22:17:29.629Z,31.30
2019-02-23T22:19:58.611Z,32.23
2019-02-23T22:22:27.488Z,28.85
2019-02-23T22:24:56.362Z,23.65
2019-02-23T22:27:31.112Z,30.97
2019-02-23T22:29:55.884Z,43.90
2019-02-23T22:32:24.739Z,30.62
2019-02-23T22:34:53.565Z,27.50
2019-02-23T22:37:22.475Z,31.10
2019-02-23T22:39:51.371Z,32.03
2019-02-23T22:42:20.156Z,22.62
2019-02-23T22:44:49.020Z,23.90
2019-02-23T22:47:17.878Z,24.77
2019-02-23T22:49:46.707Z,27.07
2019-02-23T22:52:15.653Z,29.20
2019-02-23T22:54:44.449Z,26.85
2019-02-23T22:57:13.608Z,26.77
2019-02-23T22:59:42.626Z,25.27
2019-02-23T23:02:11.805Z,28.65
2019-02-23T23:04:40.669Z,22.40
2019-02-23T23:07:09.547Z,29.65
2019-02-23T23:09:38.346Z,20.25
2019-02-23T23:12:08.590Z,24.50
2019-02-23T23:14:37.455Z,23.73
2019-02-23T23:17:06.583Z,27.48
2019-02-23T23:19:35.457Z,27.27
2019-02-23T23:22:04.257Z,31.57
2019-02-23T23:24:35.770Z,24.00
2019-02-23T23:27:04.721Z,30.80
2019-02-23T23:29:33.778Z,34.50
2019-02-23T23:32:02.612Z,27.65
2019-02-23T23:34:31.608Z,37.00
2019-02-23T23:37:00.655Z,27.15
2019-02-23T23:39:29.521Z,27.20
2019-02-23T23:41:58.337Z,21.85
2019-02-23T23:44:27.162Z,27.40
2019-02-23T23:46:56.025Z,26.40
2019-02-23T23:49:25.155Z,26.75
2019-02-23T23:51:54.227Z,32.33
2019-02-23T23:54:23.215Z,28.12
2019-02-23T23:56:52.061Z,27.87
2019-02-23T23:59:20.945Z,28.35
